sensor_id;sensor_type;location;lat;lon;timestamp;pressure;altitude;pressure_sealevel;temperature;humidity
74627;BME280;63132;52.268;5.192;2023-03-14T00:00:07;98721.88;;;9.28;70.51
74627;BME280;63132;52.268;5.192;2023-03-14T00:02:33;98721.22;;;9.34;70.40
74627;BME280;63132;52.268;5.192;2023-03-14T00:04:59;98726.22;;;9.29;70.39
74627;BME280;63132;52.268;5.192;2023-03-14T00:07:24;98729.34;;;9.41;69.89
74627;BME280;63132;52.268;5.192;2023-03-14T00:09:50;98731.38;;;9.39;70.28
74627;BME280;63132;52.268;5.192;2023-03-14T00:12:15;98732.53;;;9.45;70.01
74627;BME280;63132;52.268;5.192;2023-03-14T00:14:41;98737.50;;;9.56;69.78
74627;BME280;63132;52.268;5.192;2023-03-14T00:17:07;98733.84;;;9.66;69.51
74627;BME280;63132;52.268;5.192;2023-03-14T00:19:33;98745.44;;;9.65;70.01
74627;BME280;63132;52.268;5.192;2023-03-14T00:21:58;98743.44;;;9.67;69.46
74627;BME280;63132;52.268;5.192;2023-03-14T00:24:23;98733.13;;;9.72;69.59
74627;BME280;63132;52.268;5.192;2023-03-14T00:26:49;98730.97;;;9.76;69.41
74627;BME280;63132;52.268;5.192;2023-03-14T00:29:14;98727.69;;;9.74;69.49
74627;BME280;63132;52.268;5.192;2023-03-14T00:31:40;98730.47;;;9.72;69.49
74627;BME280;63132;52.268;5.192;2023-03-14T00:34:05;98725.53;;;9.69;69.68
74627;BME280;63132;52.268;5.192;2023-03-14T00:36:31;98721.84;;;9.70;69.75
74627;BME280;63132;52.268;5.192;2023-03-14T00:38:56;98725.34;;;9.79;69.23
74627;BME280;63132;52.268;5.192;2023-03-14T00:41:23;98707.59;;;9.71;69.54
74627;BME280;63132;52.268;5.192;2023-03-14T00:43:49;98722.19;;;9.67;69.68
74627;BME280;63132;52.268;5.192;2023-03-14T00:46:15;98725.88;;;9.66;70.33
74627;BME280;63132;52.268;5.192;2023-03-14T00:48:40;98729.50;;;9.65;70.63
74627;BME280;63132;52.268;5.192;2023-03-14T00:51:07;98740.16;;;9.56;71.33
74627;BME280;63132;52.268;5.192;2023-03-14T00:53:37;98740.78;;;9.58;71.78
74627;BME280;63132;52.268;5.192;2023-03-14T00:56:05;98745.28;;;9.50;72.18
74627;BME280;63132;52.268;5.192;2023-03-14T00:58:31;98736.66;;;9.39;72.86
74627;BME280;63132;52.268;5.192;2023-03-14T01:00:56;98743.63;;;9.40;73.36
74627;BME280;63132;52.268;5.192;2023-03-14T01:03:22;98741.63;;;9.34;73.78
74627;BME280;63132;52.268;5.192;2023-03-14T01:05:49;98746.94;;;9.26;73.93
74627;BME280;63132;52.268;5.192;2023-03-14T01:08:14;98734.81;;;9.15;75.25
74627;BME280;63132;52.268;5.192;2023-03-14T01:10:40;98732.47;;;8.95;75.64
74627;BME280;63132;52.268;5.192;2023-03-14T01:13:06;98725.84;;;8.91;76.07
74627;BME280;63132;52.268;5.192;2023-03-14T01:15:33;98733.16;;;8.97;75.61
74627;BME280;63132;52.268;5.192;2023-03-14T01:17:59;98729.84;;;8.95;75.45
74627;BME280;63132;52.268;5.192;2023-03-14T01:20:24;98724.19;;;8.98;75.04
74627;BME280;63132;52.268;5.192;2023-03-14T01:22:49;98718.88;;;8.98;75.06
74627;BME280;63132;52.268;5.192;2023-03-14T01:25:16;98737.47;;;8.90;76.23
74627;BME280;63132;52.268;5.192;2023-03-14T01:27:41;98732.44;;;8.70;77.77
74627;BME280;63132;52.268;5.192;2023-03-14T01:30:10;98748.78;;;8.57;79.43
74627;BME280;63132;52.268;5.192;2023-03-14T01:32:37;98741.94;;;8.46;80.80
74627;BME280;63132;52.268;5.192;2023-03-14T01:35:03;98741.22;;;8.35;81.69
74627;BME280;63132;52.268;5.192;2023-03-14T01:37:29;98751.63;;;8.28;82.42
74627;BME280;63132;52.268;5.192;2023-03-14T01:39:54;98753.22;;;8.21;83.02
74627;BME280;63132;52.268;5.192;2023-03-14T01:42:20;98742.50;;;8.23;83.14
74627;BME280;63132;52.268;5.192;2023-03-14T01:44:54;98747.75;;;8.14;83.46
74627;BME280;63132;52.268;5.192;2023-03-14T01:47:21;98733.16;;;8.10;83.38
74627;BME280;63132;52.268;5.192;2023-03-14T01:49:47;98736.47;;;8.12;83.19
74627;BME280;63132;52.268;5.192;2023-03-14T01:52:22;98727.22;;;8.16;83.50
74627;BME280;63132;52.268;5.192;2023-03-14T01:54:53;98726.41;;;8.16;83.01
74627;BME280;63132;52.268;5.192;2023-03-14T01:57:29;98724.94;;;8.22;83.02
74627;BME280;63132;52.268;5.192;2023-03-14T02:00:02;98727.41;;;8.23;82.26
74627;BME280;63132;52.268;5.192;2023-03-14T02:02:29;98716.31;;;8.20;82.43
74627;BME280;63132;52.268;5.192;2023-03-14T02:04:56;98716.31;;;8.20;82.19
74627;BME280;63132;52.268;5.192;2023-03-14T02:07:26;98716.16;;;8.21;82.36
74627;BME280;63132;52.268;5.192;2023-03-14T02:09:56;98718.00;;;8.21;81.98
74627;BME280;63132;52.268;5.192;2023-03-14T02:12:23;98701.44;;;8.27;81.79
74627;BME280;63132;52.268;5.192;2023-03-14T02:14:48;98705.09;;;8.26;81.21
74627;BME280;63132;52.268;5.192;2023-03-14T02:17:16;98706.59;;;8.28;81.27
74627;BME280;63132;52.268;5.192;2023-03-14T02:22:10;98699.16;;;8.32;80.70
74627;BME280;63132;52.268;5.192;2023-03-14T02:27:20;98692.91;;;8.41;80.13
74627;BME280;63132;52.268;5.192;2023-03-14T02:32:27;98691.22;;;8.40;80.00
74627;BME280;63132;52.268;5.192;2023-03-14T02:34:57;98688.75;;;8.39;80.14
74627;BME280;63132;52.268;5.192;2023-03-14T02:37:27;98688.41;;;8.42;79.35
74627;BME280;63132;52.268;5.192;2023-03-14T02:39:55;98677.84;;;8.50;79.51
74627;BME280;63132;52.268;5.192;2023-03-14T02:42:21;98688.59;;;8.49;79.84
74627;BME280;63132;52.268;5.192;2023-03-14T02:44:58;98683.97;;;8.51;79.48
74627;BME280;63132;52.268;5.192;2023-03-14T02:47:29;98684.44;;;8.46;79.73
74627;BME280;63132;52.268;5.192;2023-03-14T02:50:05;98677.50;;;8.45;80.07
74627;BME280;63132;52.268;5.192;2023-03-14T02:52:31;98681.13;;;8.44;79.72
74627;BME280;63132;52.268;5.192;2023-03-14T02:54:57;98680.94;;;8.37;79.63
74627;BME280;63132;52.268;5.192;2023-03-14T02:57:22;98677.63;;;8.35;79.97
74627;BME280;63132;52.268;5.192;2023-03-14T02:59:47;98681.59;;;8.31;80.57
74627;BME280;63132;52.268;5.192;2023-03-14T03:02:13;98675.81;;;8.36;80.38
74627;BME280;63132;52.268;5.192;2023-03-14T03:04:38;98676.44;;;8.29;80.35
74627;BME280;63132;52.268;5.192;2023-03-14T03:07:03;98676.44;;;8.29;80.41
74627;BME280;63132;52.268;5.192;2023-03-14T03:09:29;98676.97;;;8.33;80.32
74627;BME280;63132;52.268;5.192;2023-03-14T03:11:54;98672.66;;;8.32;79.98
74627;BME280;63132;52.268;5.192;2023-03-14T03:14:20;98662.88;;;8.24;80.13
74627;BME280;63132;52.268;5.192;2023-03-14T03:16:45;98666.31;;;8.25;80.17
74627;BME280;63132;52.268;5.192;2023-03-14T03:19:10;98669.97;;;8.24;79.94
74627;BME280;63132;52.268;5.192;2023-03-14T03:21:36;98660.69;;;8.20;80.03
74627;BME280;63132;52.268;5.192;2023-03-14T03:24:01;98659.84;;;8.19;80.09
74627;BME280;63132;52.268;5.192;2023-03-14T03:26:26;98655.22;;;8.21;79.95
74627;BME280;63132;52.268;5.192;2023-03-14T03:28:52;98663.50;;;8.18;79.82
74627;BME280;63132;52.268;5.192;2023-03-14T03:31:17;98660.34;;;8.14;80.22
74627;BME280;63132;52.268;5.192;2023-03-14T03:33:43;98681.19;;;8.17;80.04
74627;BME280;63132;52.268;5.192;2023-03-14T03:36:09;98667.00;;;8.27;80.03
74627;BME280;63132;52.268;5.192;2023-03-14T03:38:35;98665.38;;;8.34;79.74
74627;BME280;63132;52.268;5.192;2023-03-14T03:41:07;98665.91;;;8.38;79.63
74627;BME280;63132;52.268;5.192;2023-03-14T03:43:32;98652.47;;;8.39;79.49
74627;BME280;63132;52.268;5.192;2023-03-14T03:45:58;98652.47;;;8.39;79.63
74627;BME280;63132;52.268;5.192;2023-03-14T03:48:23;98650.16;;;8.45;79.35
74627;BME280;63132;52.268;5.192;2023-03-14T03:50:49;98656.59;;;8.42;79.11
74627;BME280;63132;52.268;5.192;2023-03-14T03:53:14;98647.50;;;8.45;78.79
74627;BME280;63132;52.268;5.192;2023-03-14T03:55:43;98652.19;;;8.51;78.67
74627;BME280;63132;52.268;5.192;2023-03-14T03:58:08;98658.31;;;8.51;78.85
74627;BME280;63132;52.268;5.192;2023-03-14T04:00:33;98648.03;;;8.48;78.63
74627;BME280;63132;52.268;5.192;2023-03-14T04:02:59;98655.97;;;8.48;78.23
74627;BME280;63132;52.268;5.192;2023-03-14T04:05:25;98645.56;;;8.55;78.50
74627;BME280;63132;52.268;5.192;2023-03-14T04:07:51;98648.91;;;8.57;78.33
74627;BME280;63132;52.268;5.192;2023-03-14T04:10:16;98648.56;;;8.60;78.41
74627;BME280;63132;52.268;5.192;2023-03-14T04:12:42;98639.97;;;8.58;78.34
74627;BME280;63132;52.268;5.192;2023-03-14T04:15:08;98652.53;;;8.56;78.69
74627;BME280;63132;52.268;5.192;2023-03-14T04:17:33;98649.72;;;8.58;78.95
74627;BME280;63132;52.268;5.192;2023-03-14T04:19:59;98648.84;;;8.49;78.98
74627;BME280;63132;52.268;5.192;2023-03-14T04:22:24;98657.13;;;8.54;79.26
74627;BME280;63132;52.268;5.192;2023-03-14T04:24:49;98654.22;;;8.57;78.91
74627;BME280;63132;52.268;5.192;2023-03-14T04:27:15;98655.50;;;8.53;79.02
74627;BME280;63132;52.268;5.192;2023-03-14T04:29:43;98656.81;;;8.49;78.90
74627;BME280;63132;52.268;5.192;2023-03-14T04:32:09;98648.69;;;8.50;79.06
74627;BME280;63132;52.268;5.192;2023-03-14T04:34:34;98649.53;;;8.51;79.01
74627;BME280;63132;52.268;5.192;2023-03-14T04:37:00;98644.41;;;8.49;79.36
74627;BME280;63132;52.268;5.192;2023-03-14T04:39:25;98642.91;;;8.55;78.92
74627;BME280;63132;52.268;5.192;2023-03-14T04:41:51;98640.97;;;8.66;78.40
74627;BME280;63132;52.268;5.192;2023-03-14T04:44:16;98639.97;;;8.58;78.79
74627;BME280;63132;52.268;5.192;2023-03-14T04:46:41;98649.72;;;8.58;79.36
74627;BME280;63132;52.268;5.192;2023-03-14T04:49:07;98638.75;;;8.52;79.92
74627;BME280;63132;52.268;5.192;2023-03-14T04:51:32;98638.72;;;8.44;80.54
74627;BME280;63132;52.268;5.192;2023-03-14T04:53:58;98646.34;;;8.39;81.21
74627;BME280;63132;52.268;5.192;2023-03-14T04:56:23;98649.78;;;8.31;82.10
74627;BME280;63132;52.268;5.192;2023-03-14T04:58:49;98651.94;;;8.27;82.79
74627;BME280;63132;52.268;5.192;2023-03-14T05:01:14;98651.28;;;8.25;83.21
74627;BME280;63132;52.268;5.192;2023-03-14T05:03:40;98646.78;;;8.17;84.13
74627;BME280;63132;52.268;5.192;2023-03-14T05:06:05;98658.81;;;8.03;84.40
74627;BME280;63132;52.268;5.192;2023-03-14T05:08:31;98657.31;;;8.01;85.03
74627;BME280;63132;52.268;5.192;2023-03-14T05:10:57;98662.78;;;7.99;85.32
74627;BME280;63132;52.268;5.192;2023-03-14T05:13:23;98654.78;;;7.91;85.85
74627;BME280;63132;52.268;5.192;2023-03-14T05:15:48;98655.44;;;7.93;86.22
74627;BME280;63132;52.268;5.192;2023-03-14T05:18:15;98648.97;;;7.87;86.29
74627;BME280;63132;52.268;5.192;2023-03-14T05:20:41;98634.72;;;7.80;86.63
74627;BME280;63132;52.268;5.192;2023-03-14T05:23:08;98631.06;;;7.81;86.89
74627;BME280;63132;52.268;5.192;2023-03-14T05:25:33;98625.63;;;7.82;87.12
74627;BME280;63132;52.268;5.192;2023-03-14T05:27:59;98630.25;;;7.80;86.80
74627;BME280;63132;52.268;5.192;2023-03-14T05:30:24;98622.47;;;7.79;87.13
74627;BME280;63132;52.268;5.192;2023-03-14T05:32:49;98611.06;;;7.78;86.95
74627;BME280;63132;52.268;5.192;2023-03-14T05:35:15;98617.19;;;7.79;87.18
74627;BME280;63132;52.268;5.192;2023-03-14T05:37:40;98611.72;;;7.80;87.46
74627;BME280;63132;52.268;5.192;2023-03-14T05:40:06;98621.81;;;7.77;87.12
74627;BME280;63132;52.268;5.192;2023-03-14T05:42:32;98622.31;;;7.80;87.54
74627;BME280;63132;52.268;5.192;2023-03-14T05:45:00;98621.47;;;7.80;87.54
74627;BME280;63132;52.268;5.192;2023-03-14T05:47:26;98627.78;;;7.87;87.47
74627;BME280;63132;52.268;5.192;2023-03-14T05:49:51;98628.78;;;7.86;87.19
74627;BME280;63132;52.268;5.192;2023-03-14T05:52:17;98637.19;;;7.81;87.22
74627;BME280;63132;52.268;5.192;2023-03-14T05:54:42;98632.41;;;7.85;87.49
74627;BME280;63132;52.268;5.192;2023-03-14T05:57:08;98635.19;;;7.75;87.50
74627;BME280;63132;52.268;5.192;2023-03-14T05:59:33;98643.69;;;7.87;87.76
74627;BME280;63132;52.268;5.192;2023-03-14T06:01:58;98641.38;;;7.92;87.67
74627;BME280;63132;52.268;5.192;2023-03-14T06:04:24;98650.66;;;7.88;87.55
74627;BME280;63132;52.268;5.192;2023-03-14T06:06:50;98661.19;;;7.80;87.70
74627;BME280;63132;52.268;5.192;2023-03-14T06:09:15;98677.75;;;7.82;87.82
74627;BME280;63132;52.268;5.192;2023-03-14T06:11:41;98693.63;;;7.82;87.80
74627;BME280;63132;52.268;5.192;2023-03-14T06:14:06;98697.91;;;7.75;87.57
74627;BME280;63132;52.268;5.192;2023-03-14T06:16:38;98708.56;;;7.65;87.93
74627;BME280;63132;52.268;5.192;2023-03-14T06:19:03;98713.44;;;7.51;87.94
74627;BME280;63132;52.268;5.192;2023-03-14T06:21:29;98734.19;;;7.19;88.22
74627;BME280;63132;52.268;5.192;2023-03-14T06:23:54;98737.72;;;6.92;89.18
74627;BME280;63132;52.268;5.192;2023-03-14T06:26:20;98747.69;;;6.80;89.58
74627;BME280;63132;52.268;5.192;2023-03-14T06:28:45;98757.00;;;6.56;90.52
74627;BME280;63132;52.268;5.192;2023-03-14T06:31:17;98759.53;;;6.47;91.04
74627;BME280;63132;52.268;5.192;2023-03-14T06:33:45;98769.34;;;6.37;91.05
74627;BME280;63132;52.268;5.192;2023-03-14T06:36:10;98782.19;;;6.22;91.38
74627;BME280;63132;52.268;5.192;2023-03-14T06:38:36;98791.91;;;6.21;91.20
74627;BME280;63132;52.268;5.192;2023-03-14T06:41:06;98793.47;;;6.14;91.09
74627;BME280;63132;52.268;5.192;2023-03-14T06:43:31;98794.69;;;6.20;91.35
74627;BME280;63132;52.268;5.192;2023-03-14T06:45:57;98805.09;;;6.21;91.72
74627;BME280;63132;52.268;5.192;2023-03-14T06:48:22;98804.03;;;6.14;92.45
74627;BME280;63132;52.268;5.192;2023-03-14T06:50:48;98809.72;;;6.09;92.54
74627;BME280;63132;52.268;5.192;2023-03-14T06:53:17;98813.34;;;5.98;92.53
74627;BME280;63132;52.268;5.192;2023-03-14T06:55:45;98839.31;;;5.93;92.62
74627;BME280;63132;52.268;5.192;2023-03-14T06:58:11;98838.63;;;5.91;92.87
74627;BME280;63132;52.268;5.192;2023-03-14T07:00:36;98844.91;;;5.90;93.11
74627;BME280;63132;52.268;5.192;2023-03-14T07:03:05;98851.28;;;5.87;93.06
74627;BME280;63132;52.268;5.192;2023-03-14T07:05:30;98866.97;;;5.79;93.30
74627;BME280;63132;52.268;5.192;2023-03-14T07:07:56;98868.78;;;5.68;93.12
74627;BME280;63132;52.268;5.192;2023-03-14T07:10:21;98883.50;;;5.71;93.30
74627;BME280;63132;52.268;5.192;2023-03-14T07:12:47;98895.88;;;5.61;92.94
74627;BME280;63132;52.268;5.192;2023-03-14T07:15:15;98901.13;;;5.61;92.75
74627;BME280;63132;52.268;5.192;2023-03-14T07:17:41;98909.91;;;5.61;92.39
74627;BME280;63132;52.268;5.192;2023-03-14T07:20:06;98913.78;;;5.67;91.92
74627;BME280;63132;52.268;5.192;2023-03-14T07:22:35;98927.22;;;5.44;91.09
74627;BME280;63132;52.268;5.192;2023-03-14T07:25:00;98931.09;;;5.40;90.31
74627;BME280;63132;52.268;5.192;2023-03-14T07:27:25;98952.72;;;5.33;89.46
74627;BME280;63132;52.268;5.192;2023-03-14T07:29:51;98962.19;;;5.46;89.16
74627;BME280;63132;52.268;5.192;2023-03-14T07:32:16;98974.56;;;5.45;89.04
74627;BME280;63132;52.268;5.192;2023-03-14T07:34:42;98979.97;;;5.54;88.66
74627;BME280;63132;52.268;5.192;2023-03-14T07:37:08;98999.28;;;5.54;88.93
74627;BME280;63132;52.268;5.192;2023-03-14T07:39:33;99032.34;;;5.27;88.17
74627;BME280;63132;52.268;5.192;2023-03-14T07:41:59;99040.25;;;4.74;88.06
74627;BME280;63132;52.268;5.192;2023-03-14T07:44:25;99062.47;;;4.60;89.29
74627;BME280;63132;52.268;5.192;2023-03-14T07:46:51;99065.47;;;4.34;89.55
74627;BME280;63132;52.268;5.192;2023-03-14T07:49:16;99078.66;;;4.23;89.64
74627;BME280;63132;52.268;5.192;2023-03-14T07:51:41;99087.31;;;4.13;89.68
74627;BME280;63132;52.268;5.192;2023-03-14T07:54:09;99102.25;;;4.13;89.23
74627;BME280;63132;52.268;5.192;2023-03-14T07:56:34;99116.75;;;3.96;89.46
74627;BME280;63132;52.268;5.192;2023-03-14T07:59:00;99118.94;;;3.90;89.38
74627;BME280;63132;52.268;5.192;2023-03-14T08:01:25;99137.59;;;3.87;89.22
74627;BME280;63132;52.268;5.192;2023-03-14T08:03:50;99149.53;;;3.80;91.64
74627;BME280;63132;52.268;5.192;2023-03-14T08:06:16;99164.13;;;3.84;92.42
74627;BME280;63132;52.268;5.192;2023-03-14T08:08:41;99168.19;;;3.65;92.71
74627;BME280;63132;52.268;5.192;2023-03-14T08:11:07;99177.16;;;3.74;92.70
74627;BME280;63132;52.268;5.192;2023-03-14T08:13:37;99194.03;;;3.72;92.97
74627;BME280;63132;52.268;5.192;2023-03-14T08:16:04;99206.81;;;3.76;92.75
74627;BME280;63132;52.268;5.192;2023-03-14T08:18:29;99207.06;;;3.85;92.92
74627;BME280;63132;52.268;5.192;2023-03-14T08:20:55;99220.56;;;3.91;92.41
74627;BME280;63132;52.268;5.192;2023-03-14T08:23:20;99220.22;;;3.96;90.98
74627;BME280;63132;52.268;5.192;2023-03-14T08:25:49;99240.56;;;3.94;89.03
74627;BME280;63132;52.268;5.192;2023-03-14T08:28:15;99239.97;;;4.02;87.79
74627;BME280;63132;52.268;5.192;2023-03-14T08:30:40;99257.94;;;4.08;87.02
74627;BME280;63132;52.268;5.192;2023-03-14T08:33:06;99274.44;;;4.22;86.66
74627;BME280;63132;52.268;5.192;2023-03-14T08:35:31;99281.38;;;4.34;86.55
74627;BME280;63132;52.268;5.192;2023-03-14T08:37:56;99292.88;;;4.33;84.96
74627;BME280;63132;52.268;5.192;2023-03-14T08:40:22;99308.06;;;4.30;84.34
74627;BME280;63132;52.268;5.192;2023-03-14T08:42:47;99304.34;;;4.32;81.75
74627;BME280;63132;52.268;5.192;2023-03-14T08:45:14;99329.03;;;4.43;80.92
74627;BME280;63132;52.268;5.192;2023-03-14T08:47:41;99323.75;;;4.66;79.78
74627;BME280;63132;52.268;5.192;2023-03-14T08:50:08;99336.41;;;4.83;80.38
74627;BME280;63132;52.268;5.192;2023-03-14T08:52:34;99346.00;;;4.84;78.33
74627;BME280;63132;52.268;5.192;2023-03-14T08:55:00;99358.09;;;4.76;77.95
74627;BME280;63132;52.268;5.192;2023-03-14T08:57:25;99366.00;;;4.64;77.03
74627;BME280;63132;52.268;5.192;2023-03-14T08:59:55;99377.16;;;4.45;78.79
74627;BME280;63132;52.268;5.192;2023-03-14T09:02:21;99388.16;;;4.38;78.79
74627;BME280;63132;52.268;5.192;2023-03-14T09:04:47;99403.38;;;4.46;80.46
74627;BME280;63132;52.268;5.192;2023-03-14T09:07:15;99409.56;;;4.34;79.98
74627;BME280;63132;52.268;5.192;2023-03-14T09:09:41;99415.41;;;4.37;79.61
74627;BME280;63132;52.268;5.192;2023-03-14T09:12:06;99421.88;;;4.22;79.39
74627;BME280;63132;52.268;5.192;2023-03-14T09:14:31;99446.47;;;4.09;79.86
74627;BME280;63132;52.268;5.192;2023-03-14T09:16:57;99451.00;;;4.07;81.73
74627;BME280;63132;52.268;5.192;2023-03-14T09:19:23;99449.06;;;3.98;81.76
74627;BME280;63132;52.268;5.192;2023-03-14T09:21:51;99451.59;;;4.11;80.86
74627;BME280;63132;52.268;5.192;2023-03-14T09:24:17;99457.75;;;4.23;79.58
74627;BME280;63132;52.268;5.192;2023-03-14T09:26:43;99473.00;;;4.31;79.75
74627;BME280;63132;52.268;5.192;2023-03-14T09:29:08;99480.47;;;4.48;79.43
74627;BME280;63132;52.268;5.192;2023-03-14T09:31:33;99483.72;;;4.52;79.26
74627;BME280;63132;52.268;5.192;2023-03-14T09:34:00;99505.56;;;4.77;78.43
74627;BME280;63132;52.268;5.192;2023-03-14T09:36:25;99506.38;;;4.78;78.18
74627;BME280;63132;52.268;5.192;2023-03-14T09:38:50;99516.16;;;4.64;77.69
74627;BME280;63132;52.268;5.192;2023-03-14T09:41:21;99528.19;;;4.91;78.26
74627;BME280;63132;52.268;5.192;2023-03-14T09:43:49;99530.34;;;4.86;78.30
74627;BME280;63132;52.268;5.192;2023-03-14T09:46:17;99535.34;;;4.78;77.49
74627;BME280;63132;52.268;5.192;2023-03-14T09:48:43;99562.28;;;4.70;77.55
74627;BME280;63132;52.268;5.192;2023-03-14T09:51:17;99565.66;;;4.72;79.15
74627;BME280;63132;52.268;5.192;2023-03-14T09:53:46;99584.88;;;4.25;79.22
74627;BME280;63132;52.268;5.192;2023-03-14T09:58:43;99624.81;;;3.29;85.88
74627;BME280;63132;52.268;5.192;2023-03-14T10:01:11;99617.25;;;3.24;85.54
74627;BME280;63132;52.268;5.192;2023-03-14T10:03:40;99613.47;;;3.41;83.66
74627;BME280;63132;52.268;5.192;2023-03-14T10:06:14;99626.50;;;3.69;83.81
74627;BME280;63132;52.268;5.192;2023-03-14T10:08:44;99626.19;;;4.11;82.68
74627;BME280;63132;52.268;5.192;2023-03-14T10:11:14;99628.56;;;4.28;80.24
74627;BME280;63132;52.268;5.192;2023-03-14T10:14:07;99646.06;;;4.53;79.53
74627;BME280;63132;52.268;5.192;2023-03-14T10:16:40;99658.41;;;4.77;79.95
74627;BME280;63132;52.268;5.192;2023-03-14T10:19:12;99660.63;;;5.06;77.99
74627;BME280;63132;52.268;5.192;2023-03-14T10:21:41;99670.03;;;5.22;76.40
74627;BME280;63132;52.268;5.192;2023-03-14T10:24:22;99679.69;;;5.10;75.92
74627;BME280;63132;52.268;5.192;2023-03-14T10:26:58;99704.84;;;5.03;73.21
74627;BME280;63132;52.268;5.192;2023-03-14T10:29:26;99722.44;;;4.78;71.23
74627;BME280;63132;52.268;5.192;2023-03-14T10:34:28;99728.53;;;4.29;71.69
74627;BME280;63132;52.268;5.192;2023-03-14T10:36:59;99743.34;;;4.30;73.30
74627;BME280;63132;52.268;5.192;2023-03-14T10:39:35;99762.84;;;4.41;73.72
74627;BME280;63132;52.268;5.192;2023-03-14T10:42:11;99754.16;;;4.52;69.07
74627;BME280;63132;52.268;5.192;2023-03-14T10:44:38;99772.78;;;4.61;67.48
74627;BME280;63132;52.268;5.192;2023-03-14T10:47:04;99789.19;;;4.78;66.79
74627;BME280;63132;52.268;5.192;2023-03-14T10:49:37;99818.75;;;4.95;67.97
74627;BME280;63132;52.268;5.192;2023-03-14T10:52:26;99799.50;;;4.81;66.61
74627;BME280;63132;52.268;5.192;2023-03-14T10:55:02;99833.03;;;4.79;64.85
74627;BME280;63132;52.268;5.192;2023-03-14T10:57:28;99824.06;;;4.82;64.00
74627;BME280;63132;52.268;5.192;2023-03-14T10:59:55;99828.63;;;4.67;64.65
74627;BME280;63132;52.268;5.192;2023-03-14T11:05:29;99855.47;;;5.23;63.79
74627;BME280;63132;52.268;5.192;2023-03-14T11:08:10;99867.44;;;5.40;61.32
74627;BME280;63132;52.268;5.192;2023-03-14T11:10:38;99878.19;;;5.86;62.40
74627;BME280;63132;52.268;5.192;2023-03-14T11:13:24;99879.00;;;5.86;59.07
74627;BME280;63132;52.268;5.192;2023-03-14T11:18:57;99893.72;;;5.77;59.95
74627;BME280;63132;52.268;5.192;2023-03-14T11:27:20;99923.28;;;5.58;60.17
74627;BME280;63132;52.268;5.192;2023-03-14T11:29:54;99944.50;;;5.56;57.79
74627;BME280;63132;52.268;5.192;2023-03-14T11:35:43;99987.09;;;5.63;53.19
74627;BME280;63132;52.268;5.192;2023-03-14T11:38:24;99966.66;;;5.67;52.67
74627;BME280;63132;52.268;5.192;2023-03-14T11:40:56;100002.88;;;5.52;51.65
74627;BME280;63132;52.268;5.192;2023-03-14T11:46:17;99983.31;;;5.67;53.12
74627;BME280;63132;52.268;5.192;2023-03-14T11:49:06;100003.59;;;5.54;51.67
74627;BME280;63132;52.268;5.192;2023-03-14T11:51:40;99998.56;;;5.51;51.46
74627;BME280;63132;52.268;5.192;2023-03-14T11:54:16;100016.63;;;5.44;50.55
74627;BME280;63132;52.268;5.192;2023-03-14T11:56:59;100007.72;;;5.58;53.82
74627;BME280;63132;52.268;5.192;2023-03-14T11:59:32;100016.78;;;5.54;51.41
74627;BME280;63132;52.268;5.192;2023-03-14T12:02:12;100023.13;;;5.89;53.16
74627;BME280;63132;52.268;5.192;2023-03-14T12:10:12;100032.59;;;6.04;48.89
74627;BME280;63132;52.268;5.192;2023-03-14T12:12:38;100036.88;;;6.19;47.84
74627;BME280;63132;52.268;5.192;2023-03-14T12:15:05;100053.81;;;6.16;48.52
74627;BME280;63132;52.268;5.192;2023-03-14T12:17:40;100050.81;;;6.21;46.19
74627;BME280;63132;52.268;5.192;2023-03-14T12:23:17;100077.84;;;6.24;47.78
74627;BME280;63132;52.268;5.192;2023-03-14T12:25:42;100079.03;;;6.20;47.38
74627;BME280;63132;52.268;5.192;2023-03-14T12:28:21;100082.63;;;6.19;48.81
74627;BME280;63132;52.268;5.192;2023-03-14T12:30:54;100085.19;;;6.08;47.57
74627;BME280;63132;52.268;5.192;2023-03-14T12:33:26;100084.16;;;5.97;48.78
74627;BME280;63132;52.268;5.192;2023-03-14T12:35:58;100088.09;;;5.91;48.39
74627;BME280;63132;52.268;5.192;2023-03-14T12:43:31;100108.50;;;5.76;44.69
74627;BME280;63132;52.268;5.192;2023-03-14T12:48:40;100124.09;;;5.92;44.73
74627;BME280;63132;52.268;5.192;2023-03-14T12:51:17;100115.63;;;6.00;44.21
74627;BME280;63132;52.268;5.192;2023-03-14T12:53:51;100133.78;;;5.92;44.90
74627;BME280;63132;52.268;5.192;2023-03-14T12:56:38;100125.78;;;5.80;46.15
74627;BME280;63132;52.268;5.192;2023-03-14T13:04:43;100157.47;;;6.07;45.56
74627;BME280;63132;52.268;5.192;2023-03-14T13:07:31;100153.75;;;5.96;46.02
74627;BME280;63132;52.268;5.192;2023-03-14T13:10:02;100153.00;;;5.94;46.91
74627;BME280;63132;52.268;5.192;2023-03-14T13:12:34;100172.78;;;6.14;46.39
74627;BME280;63132;52.268;5.192;2023-03-14T13:15:12;100171.50;;;6.20;45.65
74627;BME280;63132;52.268;5.192;2023-03-14T13:17:40;100178.53;;;6.33;45.29
74627;BME280;63132;52.268;5.192;2023-03-14T13:20:18;100185.97;;;6.52;44.16
74627;BME280;63132;52.268;5.192;2023-03-14T13:22:47;100195.06;;;6.48;45.40
74627;BME280;63132;52.268;5.192;2023-03-14T13:25:12;100199.06;;;6.54;45.15
74627;BME280;63132;52.268;5.192;2023-03-14T13:27:38;100196.31;;;6.80;45.88
74627;BME280;63132;52.268;5.192;2023-03-14T13:32:42;100223.06;;;6.50;49.42
74627;BME280;63132;52.268;5.192;2023-03-14T13:35:17;100233.66;;;6.50;49.16
74627;BME280;63132;52.268;5.192;2023-03-14T13:37:42;100235.13;;;6.55;50.14
74627;BME280;63132;52.268;5.192;2023-03-14T13:40:18;100250.94;;;6.68;48.86
74627;BME280;63132;52.268;5.192;2023-03-14T13:42:44;100253.41;;;6.58;49.73
74627;BME280;63132;52.268;5.192;2023-03-14T13:45:12;100244.75;;;6.43;50.67
74627;BME280;63132;52.268;5.192;2023-03-14T13:47:39;100245.97;;;6.25;49.39
74627;BME280;63132;52.268;5.192;2023-03-14T13:50:05;100266.69;;;6.06;48.93
74627;BME280;63132;52.268;5.192;2023-03-14T13:52:35;100262.03;;;6.09;49.28
74627;BME280;63132;52.268;5.192;2023-03-14T13:55:03;100281.66;;;5.92;48.14
74627;BME280;63132;52.268;5.192;2023-03-14T13:57:51;100285.13;;;5.79;48.06
74627;BME280;63132;52.268;5.192;2023-03-14T14:02:46;100302.97;;;5.63;49.01
74627;BME280;63132;52.268;5.192;2023-03-14T14:05:12;100305.25;;;5.54;47.60
74627;BME280;63132;52.268;5.192;2023-03-14T14:07:43;100302.53;;;5.56;48.06
74627;BME280;63132;52.268;5.192;2023-03-14T14:10:11;100310.44;;;5.69;44.99